Impacts METAR Board
IDs:

KBWI - Baltimore-Washington, MD, US

Updated at: 1800 UTC 24 Jun 2018
Potential Impact None Slight Moderate High
Time 24/06Z 24/07Z 24/08Z 24/09Z 24/10Z 24/11Z 24/12Z 24/13Z 24/14Z 24/15Z 24/16Z 24/17Z 24/18Z
Temp69 68 68 68 67 70 73 78 81 83 86 87 87
Dewpt69 68 68 68 67 69 70 70 69 69 69 67 67
Altim29.82 29.82 29.82 29.82 29.83 29.84 29.86 29.86 29.85 29.86 29.85 29.85 29.84
VIS10 10 10 9 7 8 9 10 10 10 10 10 10
CIG-- -- -- 250 90 170 210 180 150 150 200 200 120
CoverSCTSCTSCTBKNBKNBKNBKNBKNBKNBKNBKNBKNBKN
FltCatVFRVFRVFRVFRVFRVFRVFRVFRVFRVFRVFRVFRVFR
WX--------BCFG----------------
WDir025023000280240250280240250300260
WSpd0 3 3 0 0 4 3 4 6 6 9 10 7
WGst-- -- -- -- -- -- -- -- -- -- -- -- 14
Raw hourly METARs
KBWI 240554Z 00000KT 10SM FEW032 FEW060 SCT250 21/21 A2982 RMK AO2 SLP096 60004 T02060206 10250 20194 58001
KBWI 240654Z 25003KT 10SM FEW060 FEW100 SCT250 20/20 A2982 RMK AO2 SLP095 T02000200
KBWI 240754Z 23003KT 10SM FEW080 SCT250 20/20 A2982 RMK AO2 SLP095 T02000200
KBWI 240854Z 00000KT 9SM SCT090 BKN250 20/20 A2982 RMK AO2 SLP097 T02000200 53001
KBWI 240954Z 00000KT 7SM BCFG FEW075 BKN090 BKN250 19/19 A2983 RMK AO2 SLP100 T01940194
KBWI 241054Z 28004KT 8SM SCT090 BKN170 BKN210 BKN250 21/21 A2984 RMK AO2 SLP104 ACC DSNT W-NW T02110206
KBWI 241154Z 24003KT 9SM FEW090 SCT170 BKN210 23/21 A2986 RMK AO2 SLP109 70004 T02280211 10228 20189 53012
KBWI 241254Z 25004KT 10SM FEW090 SCT150 BKN180 BKN250 26/21 A2986 RMK AO2 SLP110 T02560211
KBWI 241354Z 28006KT 10SM FEW090 BKN150 BKN180 BKN250 27/21 A2985 RMK AO2 SLP107 T02720206
KBWI 241454Z 24006KT 10SM FEW030 SCT090 BKN150 BKN250 28/21 A2986 RMK AO2 SLP109 T02830206 58000
KBWI 241554Z 25009KT 10SM SCT040 SCT150 BKN200 BKN250 30/21 A2985 RMK AO2 SLP107 T03000206
KBWI 241654Z 30010KT 10SM SCT045 SCT150 BKN200 BKN250 31/19 A2985 RMK AO2 SLP108 T03060194
KBWI 241754Z 26007G14KT 10SM SCT050 SCT090 BKN120 BKN200 31/19 A2984 RMK AO2 SLP103 T03060194 10317 20228 58005



Page loaded:  18:10 UTC  |   11:10 AM Pacific  |   12:10 PM Mountain  |   01:10 PM Central  |   02:10 PM Eastern

 

ADVISORIES

FORECASTS

FORECASTS

OBSERVATIONS

USER TOOLS

ABOUT US